Lost Creek, West Virginia
Current Conditions -  °F | °C
As of 6:53 PM on Wednesday 22 Oct 2014 (Local Time) from KCKB Reporting Station
Overcast Overcast  
Wind Chill:   Ceiling: 1800
Heat Index:   Visibility: 10mi
Dew Point:   Wind: 7mph
Humidity: 80%   Direction: 330°NNW
Pressure: 30.17"   Gusts: NA
Location:  39.16°N, 80.35°W
Report Text: KCKB 222253Z 33006KT 10SM OVC018 09/06 A3017 RMK AO2 SLP214 T00890056
Loading
Personal Weather Stations






























Interactive Weather Map
Tropical Storm Tracking
New forecast layout! Learn more

10-Day Weather Forecast

Advertisements
Track Severe Weather on mobile